Time;durP1;ratioP1;P1;durP2;ratioP2;P2;SDS_P1;SDS_P2;PMS_P1;PMS_P2;Temp;Humidity;BMP_temperature;BMP_pressure;BME280_temperature;BME280_humidity;BME280_pressure;Samples;Min_cycle;Max_cycle;Signal;HPM_P1;HPM_P2
2023/05/06 00:01:32;;;;;;;9.70;8.70;;;18.10;65.50;;;;;;20712;6853;68382;-75
2023/05/06 00:03:57;;;;;;;9.90;9.17;;;17.90;66.20;;;;;;20714;6852;67896;-74
2023/05/06 00:06:23;;;;;;;8.57;7.97;;;17.60;67.70;;;;;;20714;6853;67444;-74
2023/05/06 00:08:49;;;;;;;9.55;8.75;;;17.60;67.70;;;;;;20492;6853;307796;-75
2023/05/06 00:11:14;;;;;;;10.25;9.48;;;17.80;66.70;;;;;;20486;6853;312447;-75
2023/05/06 00:13:40;;;;;;;10.20;9.50;;;18.10;64.80;;;;;;20486;6853;313780;-74
2023/05/06 00:16:05;;;;;;;8.63;7.95;;;18.40;63.80;;;;;;20698;6853;67392;-74
2023/05/06 00:18:31;;;;;;;9.47;8.70;;;18.30;64.30;;;;;;20489;6853;278811;-75
2023/05/06 00:20:57;;;;;;;8.60;8.00;;;18.40;63.80;;;;;;20501;6853;310848;-75
2023/05/06 00:23:22;;;;;;;9.73;9.03;;;18.60;63.40;;;;;;20501;6853;307793;-75
2023/05/06 00:25:48;;;;;;;9.13;8.52;;;18.80;62.40;;;;;;20507;6853;322351;-74
2023/05/06 00:28:14;;;;;;;8.00;7.50;;;18.70;62.50;;;;;;20723;6853;67421;-74
2023/05/06 00:30:40;;;;;;;7.73;7.27;;;18.70;62.50;;;;;;20716;6853;74328;-77
2023/05/06 00:33:05;;;;;;;7.27;6.77;;;18.40;63.50;;;;;;20715;6853;67378;-74
2023/05/06 00:35:31;;;;;;;8.20;7.70;;;18.10;64.60;;;;;;20495;6853;295777;-74
2023/05/06 00:37:56;;;;;;;8.90;8.13;;;18.20;64.70;;;;;;20500;6853;288579;-75
2023/05/06 00:40:23;;;;;;;8.83;8.27;;;18.80;62.10;;;;;;20479;6853;317242;-74
2023/05/06 00:42:49;;;;;;;8.80;8.30;;;18.90;61.40;;;;;;20491;6853;307462;-74
2023/05/06 00:45:14;;;;;;;9.57;8.83;;;18.90;61.30;;;;;;20504;6853;282515;-75
2023/05/06 00:47:41;;;;;;;9.90;9.10;;;19.10;60.60;;;;;;20500;6853;308356;-75
2023/05/06 00:50:06;;;;;;;9.57;8.83;;;19.10;60.50;;;;;;20502;6853;277870;-75
2023/05/06 00:52:32;;;;;;;9.60;7.73;;;19.20;60.80;;;;;;20710;6853;67404;-74
2023/05/06 00:54:58;;;;;;;9.77;8.97;;;18.90;61.50;;;;;;20500;6853;322182;-74
2023/05/06 00:57:23;;;;;;;8.37;7.70;;;18.80;61.50;;;;;;20713;6853;68062;-74
2023/05/06 00:59:49;;;;;;;7.67;7.07;;;18.60;62.10;;;;;;20711;6853;67881;-74
2023/05/06 01:02:15;;;;;;;9.85;9.15;;;18.30;63.20;;;;;;20497;6853;278339;-74
2023/05/06 01:04:40;;;;;;;9.10;8.50;;;18.30;62.90;;;;;;20710;6853;68320;-74
2023/05/06 01:07:39;;;;;;;9.47;8.73;;;18.30;63.20;;;;;;20501;6853;279716;-75
2023/05/06 01:10:28;;;;;;;8.73;7.90;;;18.30;63.20;;;;;;20706;6853;67949;-75
2023/05/06 01:13:03;;;;;;;8.10;7.53;;;18.10;63.70;;;;;;20717;6853;72387;-75
2023/05/06 01:15:29;;;;;;;10.30;9.60;;;18.00;64.50;;;;;;20496;6852;307944;-75
2023/05/06 01:17:55;;;;;;;10.20;9.40;;;17.90;64.40;;;;;;20715;6853;67441;-74
2023/05/06 01:20:20;;;;;;;9.47;8.77;;;17.90;64.40;;;;;;20709;6853;67913;-75
2023/05/06 01:22:46;;;;;;;11.30;10.40;;;17.80;64.30;;;;;;20507;6853;312530;-75
2023/05/06 01:25:22;;;;;;;10.40;9.47;;;17.80;64.30;;;;;;20713;6853;67845;-76
2023/05/06 01:27:48;;;;;;;10.03;9.33;;;17.60;65.50;;;;;;20716;6853;68058;-75
2023/05/06 01:30:14;;;;;;;10.85;10.13;;;17.50;65.40;;;;;;20491;6853;337435;-75
2023/05/06 01:32:42;;;;;;;9.60;8.73;;;17.70;65.00;;;;;;20701;6853;71494;-75
2023/05/06 01:35:21;;;;;;;133.00;15.88;;;17.70;65.10;;;;;;20490;6853;333554;-74
2023/05/06 01:37:46;;;;;;;27.63;11.77;;;17.80;64.10;;;;;;20696;6853;67840;-78
2023/05/06 01:40:12;;;;;;;41.63;13.23;;;17.70;64.40;;;;;;20482;6853;322943;-78
2023/05/06 01:42:38;;;;;;;40.05;13.15;;;17.80;64.30;;;;;;20488;6853;311970;-76
2023/05/06 01:45:03;;;;;;;117.10;13.03;;;18.00;64.10;;;;;;20709;6853;68020;-75
2023/05/06 01:47:29;;;;;;;78.97;14.30;;;17.90;64.20;;;;;;20500;6853;281512;-76
2023/05/06 01:49:55;;;;;;;141.32;15.13;;;18.00;64.50;;;;;;20503;6853;278761;-76
2023/05/06 01:52:20;;;;;;;49.97;11.10;;;18.20;63.60;;;;;;20713;6853;68459;-74
2023/05/06 01:54:46;;;;;;;82.35;12.30;;;18.10;64.00;;;;;;20502;6853;310827;-76
2023/05/06 01:57:11;;;;;;;89.30;13.07;;;18.10;63.70;;;;;;20506;6853;308433;-76
2023/05/06 01:59:37;;;;;;;71.82;13.43;;;18.30;62.50;;;;;;20505;6853;318693;-75
2023/05/06 02:02:02;;;;;;;135.20;12.03;;;18.50;62.00;;;;;;20712;6853;68820;-75
2023/05/06 02:04:28;;;;;;;178.82;14.65;;;18.30;63.20;;;;;;20496;6853;308269;-75
2023/05/06 02:06:54;;;;;;;190.20;13.43;;;18.10;63.00;;;;;;20709;6853;68323;-75
2023/05/06 02:09:20;;;;;;;178.05;15.48;;;18.10;63.10;;;;;;20502;6853;307634;-76
2023/05/06 02:11:45;;;;;;;77.78;12.77;;;18.10;63.00;;;;;;20496;6853;337516;-76
2023/05/06 02:14:11;;;;;;;113.87;12.07;;;18.30;62.60;;;;;;20711;6853;67887;-77
2023/05/06 02:16:37;;;;;;;190.57;14.20;;;17.80;64.90;;;;;;20708;6853;73343;-75
2023/05/06 02:19:04;;;;;;;143.57;14.63;;;17.80;64.20;;;;;;20505;6853;278600;-78
2023/05/06 02:21:28;;;;;;;252.90;15.47;;;17.90;63.70;;;;;;20505;6853;279592;-78
2023/05/06 02:23:54;;;;;;;255.53;13.33;;;18.20;63.40;;;;;;20718;6853;67454;-75
2023/05/06 02:26:19;;;;;;;40.13;11.80;;;18.10;63.50;;;;;;20515;6851;279165;-75
2023/05/06 02:28:45;;;;;;;106.67;13.33;;;18.10;63.30;;;;;;20497;6853;307921;-77
2023/05/06 02:31:13;;;;;;;77.63;12.27;;;18.30;62.80;;;;;;20500;6853;307337;-75
2023/05/06 02:33:39;;;;;;;32.03;10.60;;;18.50;62.20;;;;;;20497;6853;307860;-75
2023/05/06 02:36:05;;;;;;;23.12;9.60;;;18.70;61.90;;;;;;20748;6853;67875;-73
2023/05/06 02:38:30;;;;;;;19.20;9.80;;;18.40;62.30;;;;;;20509;6853;278465;-75
2023/05/06 02:40:56;;;;;;;9.20;8.50;;;18.40;61.80;;;;;;20712;6853;68983;-75
2023/05/06 02:43:21;;;;;;;8.10;7.60;;;18.20;62.30;;;;;;20716;6853;68476;-74
2023/05/06 02:45:47;;;;;;;7.62;7.22;;;17.90;63.30;;;;;;20713;6853;67066;-75
2023/05/06 02:48:12;;;;;;;8.00;7.57;;;17.60;64.10;;;;;;20715;6853;68247;-78
2023/05/06 02:50:38;;;;;;;9.30;8.70;;;17.40;65.00;;;;;;20496;6853;305308;-74
2023/05/06 02:53:04;;;;;;;7.97;7.57;;;17.60;64.00;;;;;;20714;6853;68093;-76
2023/05/06 02:55:29;;;;;;;10.38;9.70;;;17.60;64.20;;;;;;20498;6853;341905;-80
2023/05/06 02:57:55;;;;;;;9.27;8.63;;;17.80;63.10;;;;;;20706;6853;69590;-78
2023/05/06 03:00:20;;;;;;;9.70;9.00;;;17.70;63.30;;;;;;20500;6853;307362;-80
2023/05/06 03:02:47;;;;;;;9.10;8.50;;;17.80;63.60;;;;;;20710;6853;68352;-78
2023/05/06 03:05:13;;;;;;;8.90;8.27;;;17.70;63.80;;;;;;20711;6853;68513;-75
2023/05/06 03:07:38;;;;;;;7.23;6.83;;;17.40;64.30;;;;;;20712;6853;74020;-81
2023/05/06 03:10:04;;;;;;;9.13;8.20;;;17.20;64.90;;;;;;20711;6853;90304;-75
2023/05/06 03:12:30;;;;;;;11.10;10.00;;;16.90;65.40;;;;;;20502;6853;278334;-74
2023/05/06 03:14:57;;;;;;;21.87;9.57;;;17.10;63.40;;;;;;20709;6853;90235;-78
2023/05/06 03:17:22;;;;;;;75.03;11.87;;;17.10;63.60;;;;;;20512;6853;278712;-74
2023/05/06 03:19:48;;;;;;;204.77;12.27;;;17.30;62.80;;;;;;20722;6853;70004;-75
2023/05/06 03:22:13;;;;;;;138.53;13.33;;;17.10;63.10;;;;;;20501;6853;307941;-79
2023/05/06 03:24:39;;;;;;;182.70;13.40;;;17.20;62.80;;;;;;20504;6853;278421;-74
2023/05/06 03:27:05;;;;;;;176.90;11.83;;;17.50;62.10;;;;;;20509;6853;308438;-78
2023/05/06 03:29:30;;;;;;;130.73;11.53;;;17.60;61.30;;;;;;20731;6853;67458;-75
2023/05/06 03:31:56;;;;;;;157.50;11.93;;;17.00;63.00;;;;;;20739;6853;67395;-77
2023/05/06 03:34:22;;;;;;;96.28;10.27;;;17.00;63.50;;;;;;20524;6853;307839;-75
2023/05/06 03:36:48;;;;;;;118.37;11.73;;;17.30;61.10;;;;;;20522;6852;318062;-74
2023/05/06 03:39:15;;;;;;;113.32;10.55;;;17.50;60.30;;;;;;20525;6853;341031;-74
2023/05/06 03:41:40;;;;;;;42.58;9.73;;;17.50;60.30;;;;;;20523;6853;323377;-75
2023/05/06 03:44:06;;;;;;;36.47;8.37;;;17.60;60.10;;;;;;20734;6853;68066;-74
2023/05/06 03:46:31;;;;;;;8.80;8.10;;;17.30;60.70;;;;;;20527;6853;308317;-74
2023/05/06 03:48:59;;;;;;;10.23;7.90;;;17.30;61.50;;;;;;20735;6853;68807;-75
2023/05/06 03:51:22;;;;;;;22.17;10.27;;;17.10;62.10;;;;;;20519;6853;308067;-74
2023/05/06 03:53:48;;;;;;;13.30;7.97;;;17.10;61.20;;;;;;20739;6853;67923;-74
2023/05/06 03:56:16;;;;;;;29.37;10.07;;;17.00;61.80;;;;;;20470;6853;312761;-77
2023/05/06 03:58:39;;;;;;;15.83;8.50;;;17.00;61.30;;;;;;20725;6853;67974;-75
2023/05/06 04:01:05;;;;;;;58.53;10.05;;;16.90;62.10;;;;;;20492;6853;337834;-74
2023/05/06 04:03:30;;;;;;;101.53;11.10;;;17.00;63.10;;;;;;20505;6853;279450;-74
2023/05/06 04:05:56;;;;;;;62.78;10.07;;;17.30;62.10;;;;;;20497;6853;307964;-75
2023/05/06 04:08:22;;;;;;;244.87;11.63;;;17.30;62.50;;;;;;20714;6853;67962;-75
2023/05/06 04:10:48;;;;;;;588.93;17.27;;;17.30;62.50;;;;;;20709;6853;74997;-75
2023/05/06 04:13:13;;;;;;;315.00;13.83;;;17.00;63.50;;;;;;20590;6853;70212;-75
2023/05/06 04:15:40;;;;;;;263.95;13.40;;;16.70;64.50;;;;;;20502;6853;279077;-77
2023/05/06 04:18:06;;;;;;;273.27;13.03;;;16.90;64.60;;;;;;20706;6853;67393;-74
2023/05/06 04:20:30;;;;;;;624.10;17.50;;;16.90;64.90;;;;;;20686;6853;127522;-74
2023/05/06 04:22:55;;;;;;;365.33;15.50;;;16.70;65.60;;;;;;20481;6853;308702;-75
2023/05/06 04:25:22;;;;;;;366.02;14.68;;;16.90;64.70;;;;;;20485;6853;345954;-75
2023/05/06 04:27:48;;;;;;;303.27;11.97;;;17.20;63.60;;;;;;20694;6853;118848;-75
2023/05/06 04:30:13;;;;;;;124.47;10.43;;;17.20;63.90;;;;;;20481;6853;283271;-75
2023/05/06 04:32:39;;;;;;;384.40;13.90;;;17.20;63.70;;;;;;20461;6853;306422;-75
2023/05/06 04:35:06;;;;;;;298.00;13.07;;;17.70;62.30;;;;;;20482;6853;307918;-74
2023/05/06 04:37:31;;;;;;;159.80;10.40;;;17.70;62.30;;;;;;20686;6853;121812;-75
2023/05/06 04:39:57;;;;;;;240.17;11.93;;;17.50;62.80;;;;;;20693;6853;119441;-75
2023/05/06 04:42:23;;;;;;;386.50;13.27;;;17.00;65.00;;;;;;20685;6853;118727;-75
2023/05/06 04:44:49;;;;;;;322.33;11.23;;;17.00;65.00;;;;;;20526;6853;123769;-75
2023/05/06 04:47:14;;;;;;;131.93;10.82;;;16.80;65.80;;;;;;20478;6853;308115;-75
2023/05/06 04:49:40;;;;;;;334.43;12.93;;;17.00;65.00;;;;;;20694;6851;118028;-74
2023/05/06 04:52:05;;;;;;;420.47;13.57;;;17.00;65.20;;;;;;20689;6853;119253;-75
2023/05/06 04:54:31;;;;;;;164.90;11.85;;;16.80;65.70;;;;;;20469;6853;312460;-71
2023/05/06 04:56:57;;;;;;;100.70;9.73;;;17.00;65.70;;;;;;20699;6853;119120;-74
2023/05/06 04:59:22;;;;;;;453.27;17.95;;;17.00;65.60;;;;;;20483;6853;341039;-75
2023/05/06 05:01:48;;;;;;;401.63;15.43;;;17.20;64.50;;;;;;20701;6853;118253;-72
2023/05/06 05:04:13;;;;;;;434.60;17.52;;;17.10;64.80;;;;;;20492;6853;308232;-74
2023/05/06 05:06:39;;;;;;;423.57;15.90;;;17.30;64.20;;;;;;20680;6853;120434;-70
2023/05/06 05:09:04;;;;;;;222.40;13.93;;;17.20;64.40;;;;;;20472;6853;283335;-72
2023/05/06 05:11:30;;;;;;;165.18;12.52;;;17.40;63.80;;;;;;20468;6853;308714;-72
2023/05/06 05:13:56;;;;;;;333.27;13.13;;;17.70;63.10;;;;;;20687;6853;118070;-73
2023/05/06 05:16:22;;;;;;;194.47;10.87;;;17.30;64.60;;;;;;20694;6853;119186;-72
2023/05/06 05:18:47;;;;;;;248.17;11.90;;;17.30;64.60;;;;;;20663;6853;118229;-73
2023/05/06 05:21:13;;;;;;;214.10;10.23;;;17.10;65.40;;;;;;20691;6853;118821;-72
2023/05/06 05:23:39;;;;;;;244.37;12.33;;;17.00;66.20;;;;;;20463;6853;307642;-71
2023/05/06 05:26:04;;;;;;;73.53;8.67;;;17.20;64.70;;;;;;20693;6853;124236;-72
2023/05/06 05:28:31;;;;;;;139.83;10.17;;;17.30;65.00;;;;;;20465;6853;282776;-73
2023/05/06 05:30:55;;;;;;;235.35;12.45;;;17.50;64.00;;;;;;20459;6853;339670;-72
2023/05/06 05:33:22;;;;;;;417.33;18.10;;;18.10;62.10;;;;;;20455;6853;279112;-71
2023/05/06 05:35:49;;;;;;;304.60;15.93;;;18.10;62.00;;;;;;20474;6853;290743;-75
2023/05/06 05:38:15;;;;;;;218.27;12.67;;;18.30;61.10;;;;;;20687;6853;117602;-72
2023/05/06 05:40:41;;;;;;;238.77;13.10;;;18.20;61.80;;;;;;20642;6853;118318;-71
2023/05/06 05:43:06;;;;;;;253.90;11.63;;;17.90;62.80;;;;;;20694;6853;117916;-72
2023/05/06 05:45:32;;;;;;;28.97;7.03;;;17.70;63.80;;;;;;20481;6853;278607;-71
2023/05/06 05:47:58;;;;;;;62.30;8.68;;;18.10;61.40;;;;;;20481;6853;283092;-72
2023/05/06 05:50:25;;;;;;;48.90;8.67;;;18.10;61.30;;;;;;20456;6853;279322;-72
2023/05/06 05:52:50;;;;;;;49.70;7.90;;;18.40;60.10;;;;;;20313;6851;307279;-72
2023/05/06 05:55:15;;;;;;;33.57;7.03;;;18.50;59.70;;;;;;20448;6868;280107;-73
2023/05/06 05:57:41;;;;;;;46.78;6.90;;;18.70;60.60;;;;;;20458;6866;315763;-74
2023/05/06 06:00:07;;;;;;;45.33;6.53;;;18.90;60.90;;;;;;20668;6864;118332;-75
2023/05/06 06:02:33;;;;;;;70.27;7.10;;;18.80;61.30;;;;;;20623;6865;147732;-76
2023/05/06 06:04:58;;;;;;;29.40;5.93;;;18.50;61.90;;;;;;20655;6866;117416;-75
2023/05/06 06:07:23;;;;;;;18.77;5.47;;;18.30;62.60;;;;;;20655;6868;117423;-73
2023/05/06 06:09:49;;;;;;;36.38;6.12;;;18.10;63.10;;;;;;20449;6853;306848;-72
2023/05/06 06:12:16;;;;;;;5.70;5.20;;;18.40;61.00;;;;;;20656;6853;117985;-72
2023/05/06 06:14:46;;;;;;;5.13;4.77;;;18.40;61.20;;;;;;20411;6853;309105;-73
2023/05/06 06:17:08;;;;;;;4.95;4.65;;;18.70;60.50;;;;;;20634;6853;117307;-71
2023/05/06 06:19:33;;;;;;;6.40;5.20;;;18.80;61.20;;;;;;20438;6853;308537;-74
2023/05/06 06:22:00;;;;;;;4.80;4.40;;;19.10;59.50;;;;;;20652;6853;119323;-75
2023/05/06 06:24:26;;;;;;;6.27;4.80;;;19.20;60.10;;;;;;20421;6853;279510;-74
2023/05/06 06:26:51;;;;;;;66.17;6.10;;;19.40;59.00;;;;;;20468;6853;277871;-74
2023/05/06 06:29:18;;;;;;;18.70;5.13;;;19.70;58.30;;;;;;20703;6853;117418;-73
2023/05/06 06:31:43;;;;;;;21.23;5.03;;;19.70;58.30;;;;;;20697;6853;117376;-74
2023/05/06 06:34:11;;;;;;;40.03;5.93;;;19.30;59.90;;;;;;20692;6853;118430;-75
2023/05/06 06:36:35;;;;;;;14.10;5.10;;;19.30;59.70;;;;;;20456;6853;308628;-74
2023/05/06 06:39:21;;;;;;;7.23;4.33;;;19.50;58.50;;;;;;20477;6853;278322;-74
2023/05/06 06:42:03;;;;;;;5.28;4.87;;;19.90;57.70;;;;;;20511;6747;307676;-74
2023/05/06 06:44:35;;;;;;;21.60;5.47;;;20.40;56.30;;;;;;20532;6773;305774;-74
2023/05/06 06:47:11;;;;;;;4.47;4.27;;;20.70;55.40;;;;;;20749;6785;117466;-74
2023/05/06 06:49:46;;;;;;;4.67;4.27;;;20.70;56.50;;;;;;20782;6775;120116;-74
2023/05/06 06:52:22;;;;;;;4.87;4.57;;;20.50;57.40;;;;;;20546;6846;118646;-74
2023/05/06 06:54:57;;;;;;;4.77;4.33;;;20.20;57.70;;;;;;20829;6756;117019;-74
2023/05/06 06:57:34;;;;;;;4.70;4.40;;;19.80;59.40;;;;;;20830;6756;116981;-74
2023/05/06 07:00:11;;;;;;;4.93;4.63;;;19.80;58.70;;;;;;20607;6756;305900;-73
2023/05/06 07:02:52;;;;;;;4.20;4.00;;;20.10;56.60;;;;;;20602;6761;307099;-74
2023/05/06 07:05:25;;;;;;;4.40;4.20;;;20.50;55.40;;;;;;20669;6742;310378;-74
2023/05/06 07:07:59;;;;;;;4.30;4.10;;;21.20;55.00;;;;;;20658;6742;277095;-74
2023/05/06 07:10:37;;;;;;;4.17;3.97;;;21.10;54.20;;;;;;20601;6742;307427;-77
2023/05/06 07:13:10;;;;;;;4.80;4.57;;;21.10;54.70;;;;;;20877;6742;116851;-74
2023/05/06 07:15:46;;;;;;;3.87;3.67;;;21.00;54.60;;;;;;20876;6741;117186;-74
2023/05/06 07:18:22;;;;;;;4.80;4.60;;;20.70;55.70;;;;;;20868;6741;119746;-73
2023/05/06 07:20:58;;;;;;;3.67;3.37;;;20.40;56.50;;;;;;20807;6741;117282;-74
2023/05/06 07:23:37;;;;;;;4.20;4.00;;;20.40;55.40;;;;;;20576;6771;315549;-72
2023/05/06 07:26:10;;;;;;;5.20;4.60;;;20.30;55.30;;;;;;20885;6741;118114;-74
2023/05/06 07:28:46;;;;;;;4.43;4.20;;;20.40;56.20;;;;;;20816;6756;117585;-75
2023/05/06 07:31:21;;;;;;;4.57;4.27;;;20.40;57.20;;;;;;20535;6751;279097;-75
2023/05/06 07:33:57;;;;;;;3.67;3.47;;;20.70;55.40;;;;;;20835;6757;121481;-74
2023/05/06 07:36:39;;;;;;;4.47;4.10;;;21.10;56.40;;;;;;20751;6774;121549;-75
2023/05/06 07:39:09;;;;;;;5.00;4.70;;;21.30;56.90;;;;;;20563;6771;293647;-74
2023/05/06 07:41:45;;;;;;;4.20;3.93;;;21.80;54.80;;;;;;20644;6771;117450;-76
2023/05/06 07:44:20;;;;;;;4.37;4.03;;;22.00;55.00;;;;;;20756;6779;119190;-75
2023/05/06 07:46:56;;;;;;;4.50;4.20;;;22.00;55.30;;;;;;20567;6765;305232;-76
2023/05/06 07:49:33;;;;;;;4.47;4.18;;;22.20;52.20;;;;;;20561;6771;307991;-74
2023/05/06 07:52:07;;;;;;;4.50;4.30;;;22.60;52.00;;;;;;20612;6776;117936;-75
2023/05/06 07:54:44;;;;;;;4.43;4.13;;;22.70;53.00;;;;;;20792;6761;193501;-76
2023/05/06 07:57:19;;;;;;;4.07;3.87;;;22.50;53.50;;;;;;20784;6772;117536;-75
2023/05/06 07:59:57;;;;;;;3.63;3.43;;;22.40;54.20;;;;;;20845;6757;117375;-75
2023/05/06 08:02:31;;;;;;;4.30;4.00;;;22.40;54.60;;;;;;20581;6762;278054;-75
2023/05/06 08:05:07;;;;;;;3.95;3.65;;;22.70;51.20;;;;;;20599;6754;336569;-74
2023/05/06 08:07:42;;;;;;;3.60;3.43;;;23.30;50.70;;;;;;20814;6749;120877;-74
2023/05/06 08:10:18;;;;;;;3.80;3.50;;;23.50;51.50;;;;;;20824;6751;116843;-77
2023/05/06 08:12:53;;;;;;;3.93;3.73;;;23.50;52.50;;;;;;20707;6721;305879;-75
2023/05/06 08:15:29;;;;;;;3.60;3.40;;;23.80;49.50;;;;;;20948;6722;117292;-74
2023/05/06 08:18:04;;;;;;;3.10;3.00;;;24.00;50.50;;;;;;20738;6722;307910;-78
2023/05/06 08:20:40;;;;;;;3.87;3.67;;;24.30;48.30;;;;;;20860;6722;122971;-75
2023/05/06 08:23:15;;;;;;;3.30;3.00;;;24.30;49.30;;;;;;20939;6722;121663;-74
2023/05/06 08:25:51;;;;;;;3.47;3.20;;;24.10;50.20;;;;;;20724;6721;292036;-78
2023/05/06 08:28:28;;;;;;;2.70;2.60;;;24.30;47.60;;;;;;20723;6721;306195;-77
2023/05/06 08:31:02;;;;;;;2.77;2.67;;;24.70;44.10;;;;;;20867;6721;118876;-83
2023/05/06 08:33:39;;;;;;;3.70;2.87;;;24.60;45.00;;;;;;20953;6721;116953;-81
2023/05/06 08:36:17;;;;;;;3.40;3.20;;;24.20;46.70;;;;;;20724;6721;305275;-77
2023/05/06 08:38:51;;;;;;;2.60;2.50;;;24.30;47.00;;;;;;20866;6740;117364;-76
2023/05/06 08:41:26;;;;;;;3.30;3.00;;;24.30;46.90;;;;;;20510;6753;304147;-75
2023/05/06 08:44:02;;;;;;;2.70;2.60;;;24.40;44.60;;;;;;20857;6746;117263;-74
2023/05/06 08:46:38;;;;;;;3.07;2.93;;;24.40;47.60;;;;;;20842;6746;118630;-76
2023/05/06 08:49:13;;;;;;;3.40;3.13;;;24.30;48.90;;;;;;20719;6731;276602;-75
2023/05/06 08:51:49;;;;;;;3.08;2.80;;;24.60;47.20;;;;;;20563;6731;335756;-74
2023/05/06 08:54:25;;;;;;;2.90;2.80;;;25.20;45.60;;;;;;20841;6746;143568;-74
2023/05/06 08:57:01;;;;;;;3.40;3.20;;;25.20;46.60;;;;;;20920;6731;117043;-74
2023/05/06 08:59:36;;;;;;;3.67;3.47;;;24.90;47.10;;;;;;20650;6746;281563;-76
2023/05/06 09:02:11;;;;;;;3.30;3.10;;;24.70;45.10;;;;;;20534;6731;307193;-75
2023/05/06 09:04:47;;;;;;;3.40;3.10;;;24.80;43.40;;;;;;20685;6731;276227;-75
2023/05/06 09:07:22;;;;;;;3.20;3.00;;;24.90;44.20;;;;;;20662;6731;305638;-75
2023/05/06 09:09:58;;;;;;;2.80;2.60;;;25.00;42.40;;;;;;20913;6731;116794;-75
2023/05/06 09:12:37;;;;;;;3.17;2.87;;;24.80;44.90;;;;;;20633;6746;324498;-75
2023/05/06 09:15:15;;;;;;;3.00;2.80;;;24.80;43.10;;;;;;20915;6731;117792;-76
2023/05/06 09:17:52;;;;;;;2.43;2.33;;;24.60;45.10;;;;;;20912;6731;123317;-75
2023/05/06 09:20:25;;;;;;;2.60;2.50;;;24.50;46.60;;;;;;20863;6731;117612;-75
2023/05/06 09:23:01;;;;;;;2.73;2.63;;;24.30;46.80;;;;;;20881;6746;118339;-75
2023/05/06 09:25:36;;;;;;;2.60;2.40;;;24.20;47.40;;;;;;20622;6751;294783;-79
2023/05/06 09:28:14;;;;;;;2.90;2.63;;;24.50;46.20;;;;;;20660;6746;280399;-74
2023/05/06 09:30:50;;;;;;;2.67;2.47;;;25.00;45.80;;;;;;20782;6746;119420;-76
2023/05/06 09:33:24;;;;;;;2.77;2.57;;;25.20;46.20;;;;;;20692;6731;310442;-78
2023/05/06 09:36:00;;;;;;;2.60;2.40;;;25.40;43.40;;;;;;20866;6746;117089;-77
2023/05/06 09:38:35;;;;;;;2.50;2.30;;;25.60;45.00;;;;;;20628;6745;301298;-77
2023/05/06 09:41:11;;;;;;;2.00;1.90;;;25.70;41.40;;;;;;20780;6746;118478;-75
2023/05/06 09:43:48;;;;;;;2.20;2.00;;;25.90;41.80;;;;;;20677;6736;279761;-75
2023/05/06 09:46:23;;;;;;;2.40;2.30;;;25.90;41.70;;;;;;20926;6726;116713;-78
2023/05/06 09:49:00;;;;;;;2.20;2.10;;;25.60;43.00;;;;;;20839;6751;117177;-75
2023/05/06 09:51:38;;;;;;;14.83;12.17;;;25.60;43.30;;;;;;20533;6751;307845;-75
2023/05/06 09:54:10;;;;;;;2.27;2.17;;;25.70;43.10;;;;;;20656;6741;306937;-75
2023/05/06 09:56:46;;;;;;;3.63;2.70;;;26.00;41.60;;;;;;20854;6746;117834;-75
2023/05/06 09:59:22;;;;;;;1.63;1.53;;;25.90;42.60;;;;;;20842;6751;118049;-75
2023/05/06 10:01:58;;;;;;;1.50;1.50;;;25.60;43.20;;;;;;20670;6770;125274;-76
2023/05/06 10:04:36;;;;;;;1.90;1.80;;;25.40;43.60;;;;;;20650;6738;297672;-76
2023/05/06 10:07:12;;;;;;;1.70;1.60;;;25.60;41.00;;;;;;20673;6738;306137;-75
2023/05/06 10:09:47;;;;;;;1.30;1.30;;;26.00;40.30;;;;;;20889;6738;117400;-75
2023/05/06 10:12:23;;;;;;;1.60;1.40;;;26.10;41.40;;;;;;20701;6794;118452;-76
2023/05/06 10:14:58;;;;;;;1.33;1.30;;;25.90;43.10;;;;;;20884;6737;117562;-74
2023/05/06 10:17:34;;;;;;;2.03;1.37;;;25.80;43.70;;;;;;20678;6741;284265;-75
2023/05/06 10:20:10;;;;;;;1.50;1.40;;;26.00;41.30;;;;;;20655;6741;276616;-76
2023/05/06 10:23:02;;;;;;;1.65;1.55;;;26.40;40.70;;;;;;20649;6741;310864;-77
2023/05/06 10:25:38;;;;;;;1.75;1.65;;;26.70;39.60;;;;;;20605;6756;306801;-77
2023/05/06 10:28:15;;;;;;;1.70;1.60;;;26.90;38.00;;;;;;20680;6737;281897;-77
2023/05/06 10:30:50;;;;;;;1.60;1.50;;;27.10;39.10;;;;;;20571;6737;308358;-77
2023/05/06 10:33:26;;;;;;;1.52;1.50;;;27.30;37.60;;;;;;20664;6737;339528;-77
2023/05/06 10:36:21;;;;;;;1.70;1.60;;;27.30;39.10;;;;;;20623;6756;278263;-77
2023/05/06 10:38:59;;;;;;;1.80;1.50;;;27.40;36.10;;;;;;20625;6756;305409;-74
2023/05/06 10:41:33;;;;;;;1.70;1.53;;;27.40;35.70;;;;;;20493;6756;313774;-77
2023/05/06 10:44:09;;;;;;;1.43;1.30;;;27.40;35.70;;;;;;20849;6752;118045;-77
2023/05/06 10:47:01;;;;;;;1.50;1.40;;;27.20;38.00;;;;;;20663;6741;276338;-76
2023/05/06 10:49:37;;;;;;;2.50;1.10;;;27.20;36.10;;;;;;20869;6749;117341;-76
2023/05/06 10:52:13;;;;;;;2.37;1.10;;;27.00;38.00;;;;;;20695;6749;117682;-77
2023/05/06 10:54:51;;;;;;;1.40;1.30;;;26.70;38.80;;;;;;20877;6734;120950;-78
2023/05/06 10:57:28;;;;;;;1.93;1.23;;;26.30;39.10;;;;;;20892;6741;117253;-77
2023/05/06 11:00:04;;;;;;;1.80;1.40;;;26.30;39.00;;;;;;20866;6741;116983;-77
2023/05/06 11:02:39;;;;;;;1.70;1.23;;;26.20;40.40;;;;;;20853;6741;117922;-76
2023/05/06 11:05:15;;;;;;;1.97;1.27;;;26.20;40.80;;;;;;20669;6741;305390;-76
2023/05/06 11:07:53;;;;;;;1.17;1.07;;;26.50;36.70;;;;;;20852;6751;118657;-74
2023/05/06 11:10:32;;;;;;;1.33;1.07;;;26.70;37.80;;;;;;20798;6751;117435;-75
2023/05/06 11:13:18;;;;;;;0.90;0.90;;;26.60;38.50;;;;;;20853;6752;122106;-74
2023/05/06 11:15:57;;;;;;;1.27;1.10;;;26.50;39.80;;;;;;20895;6736;117737;-76
2023/05/06 11:18:40;;;;;;;1.60;1.50;;;26.70;36.20;;;;;;20636;6741;305233;-74
2023/05/06 11:21:13;;;;;;;1.50;1.40;;;26.70;36.20;;;;;;20732;6756;117819;-74
2023/05/06 11:23:52;;;;;;;1.50;1.40;;;26.80;38.00;;;;;;20620;6752;306208;-75
2023/05/06 11:26:29;;;;;;;1.03;0.93;;;27.00;37.60;;;;;;20871;6737;118075;-73
2023/05/06 11:29:04;;;;;;;1.17;1.07;;;27.10;38.10;;;;;;20762;6722;281572;-75
2023/05/06 11:31:39;;;;;;;1.07;0.97;;;27.10;35.80;;;;;;20746;6737;118349;-74
2023/05/06 11:34:22;;;;;;;1.40;1.30;;;27.20;37.80;;;;;;20721;6722;305388;-74
2023/05/06 11:37:03;;;;;;;1.47;1.00;;;27.30;34.50;;;;;;20752;6827;117411;-75
2023/05/06 11:39:39;;;;;;;1.57;1.40;;;27.20;35.10;;;;;;20620;6756;277278;-75
2023/05/06 11:42:15;;;;;;;1.33;1.20;;;27.10;35.00;;;;;;20511;6749;292535;-74
2023/05/06 11:44:50;;;;;;;1.60;1.50;;;27.30;35.10;;;;;;20923;6722;122100;-75
2023/05/06 11:47:26;;;;;;;1.33;1.30;;;27.20;36.70;;;;;;20935;6722;116951;-74
2023/05/06 11:50:06;;;;;;;1.30;1.20;;;26.90;37.80;;;;;;20874;6741;116873;-75
2023/05/06 11:52:37;;;;;;;2.20;1.40;;;26.60;38.50;;;;;;20859;6741;116975;-74
2023/05/06 11:55:13;;;;;;;1.10;1.10;;;26.10;39.60;;;;;;20845;6751;117335;-74
2023/05/06 11:57:49;;;;;;;1.07;1.07;;;26.10;39.60;;;;;;20926;6737;121962;-76
2023/05/06 12:00:26;;;;;;;2.13;1.20;;;26.00;39.30;;;;;;20871;6736;121074;-75
2023/05/06 12:03:03;;;;;;;1.10;1.10;;;25.60;39.80;;;;;;20931;6736;117555;-75
2023/05/06 12:05:39;;;;;;;1.50;1.30;;;25.60;40.40;;;;;;20668;6751;306487;-74
2023/05/06 12:08:18;;;;;;;1.10;1.10;;;25.60;38.10;;;;;;20884;6751;117485;-74
2023/05/06 12:10:51;;;;;;;1.33;1.27;;;25.60;38.00;;;;;;20776;6751;119143;-75
2023/05/06 12:13:27;;;;;;;1.20;1.10;;;25.50;39.40;;;;;;20604;6744;277174;-74
2023/05/06 12:16:02;;;;;;;3.37;1.20;;;25.60;37.60;;;;;;20866;6744;117219;-73
2023/05/06 12:18:38;;;;;;;1.90;1.80;;;25.70;38.50;;;;;;20864;6738;118715;-77
2023/05/06 12:21:13;;;;;;;1.80;1.13;;;25.50;39.20;;;;;;20757;6753;117452;-76
2023/05/06 12:23:52;;;;;;;1.37;1.00;;;25.40;40.10;;;;;;20766;6775;118299;-75
2023/05/06 12:26:29;;;;;;;1.13;1.10;;;25.20;40.30;;;;;;20823;6753;123289;-75
2023/05/06 12:29:06;;;;;;;1.40;1.30;;;25.10;40.50;;;;;;20621;6753;307186;-74
2023/05/06 12:31:46;;;;;;;1.27;1.20;;;25.50;39.60;;;;;;20722;6746;117311;-74
2023/05/06 12:34:21;;;;;;;1.20;1.20;;;25.50;39.60;;;;;;20851;6751;117559;-74
2023/05/06 12:36:57;;;;;;;1.67;1.17;;;25.50;40.20;;;;;;20772;6822;118113;-74
2023/05/06 12:39:36;;;;;;;3.27;1.27;;;25.30;40.40;;;;;;20882;6738;117326;-73
2023/05/06 12:42:12;;;;;;;1.20;1.20;;;25.20;40.60;;;;;;20759;6724;123121;-73
2023/05/06 12:44:47;;;;;;;1.67;1.20;;;25.00;41.00;;;;;;20678;6730;306110;-73
2023/05/06 12:47:23;;;;;;;1.10;1.00;;;25.30;36.50;;;;;;20846;6756;118114;-75
2023/05/06 12:49:59;;;;;;;1.77;1.50;;;25.30;38.10;;;;;;20792;6765;121432;-74